Time;durP1;ratioP1;P1;durP2;ratioP2;P2;SDS_P1;SDS_P2;PMS_P1;PMS_P2;Temp;Humidity;BMP_temperature;BMP_pressure;BME280_temperature;BME280_humidity;BME280_pressure;Samples;Min_cycle;Max_cycle;Signal;HPM_P1;HPM_P2
2022/12/30 00:01:38;;;;;;;5.88;1.58;;;;;;;8.36;79.27;100116.13;5033423;28;20038;-88
2022/12/30 00:04:05;;;;;;;6.85;2.65;;;;;;;8.32;79.73;100126.84;5026951;28;20068;-86
2022/12/30 00:06:39;;;;;;;7.93;1.58;;;;;;;8.30;80.01;100113.00;5031510;28;20064;-88
2022/12/30 00:09:14;;;;;;;6.47;1.70;;;;;;;8.28;79.12;100126.19;5019344;28;20083;-88
2022/12/30 00:11:44;;;;;;;5.18;1.48;;;;;;;8.35;79.20;100122.28;5020867;28;20045;-89
2022/12/30 00:34:18;;;;;;;;;;;;;;;8.31;79.21;100143.53;5042296;28;20041;-87
2022/12/30 00:36:47;;;;;;;6.55;1.60;;;;;;;8.26;79.47;100151.66;5047405;28;19921;-88
2022/12/30 00:39:15;;;;;;;5.20;1.65;;;;;;;8.21;79.47;100173.84;5017401;28;20094;-87
2022/12/30 00:44:28;;;;;;;8.40;1.70;;;;;;;8.18;79.09;100166.97;5020968;28;20077;-87
2022/12/30 00:46:56;;;;;;;7.72;1.30;;;;;;;8.14;79.35;100170.69;5008028;28;20068;-87
2022/12/30 00:57:41;;;;;;;5.20;1.50;;;;;;;8.13;78.67;100150.66;5043481;28;20037;-87
2022/12/30 01:00:11;;;;;;;4.45;1.50;;;;;;;8.12;79.09;100170.78;5030200;28;20488;-87
2022/12/30 01:02:38;;;;;;;8.15;2.03;;;;;;;8.16;78.09;100173.25;5012955;28;20076;-86
2022/12/30 01:05:06;;;;;;;6.95;1.67;;;;;;;8.18;78.57;100169.59;5017776;28;20036;-85
2022/12/30 01:07:34;;;;;;;5.65;1.55;;;;;;;8.13;78.83;100172.47;5034203;28;20098;-85
2022/12/30 01:10:01;;;;;;;7.07;1.60;;;;;;;8.10;78.43;100175.28;5041059;28;20033;-87
2022/12/30 01:12:29;;;;;;;4.32;1.35;;;;;;;8.09;77.74;100185.84;5041986;28;20045;-87
2022/12/30 01:14:58;;;;;;;7.28;1.60;;;;;;;8.10;77.04;100201.50;5028292;28;20042;-86
2022/12/30 01:17:29;;;;;;;11.20;2.05;;;;;;;8.09;76.26;100206.81;5040005;28;20056;-85
2022/12/30 01:19:56;;;;;;;5.55;1.25;;;;;;;8.08;76.29;100207.75;5022324;28;20055;-86
2022/12/30 01:22:24;;;;;;;8.43;1.77;;;;;;;8.10;76.64;100201.50;5012855;28;20038;-87
2022/12/30 01:24:52;;;;;;;12.40;2.40;;;;;;;8.16;75.38;100215.22;5011062;28;20674;-88
2022/12/30 01:27:20;;;;;;;9.38;1.67;;;;;;;8.17;75.01;100219.50;5015483;28;20025;-89
2022/12/30 01:29:48;;;;;;;6.45;1.58;;;;;;;8.12;75.87;100227.63;5023292;28;20041;-87
2022/12/30 01:32:20;;;;;;;9.82;1.42;;;;;;;8.07;75.62;100232.28;5014998;28;20037;-87
2022/12/30 01:34:52;;;;;;;11.18;1.73;;;;;;;8.04;75.19;100238.53;5025408;28;20018;-88
2022/12/30 01:37:20;;;;;;;8.85;1.33;;;;;;;7.96;75.66;100240.72;5039131;28;20030;-89
2022/12/30 01:39:47;;;;;;;7.07;1.52;;;;;;;8.02;75.50;100245.66;5003179;28;20038;-89
2022/12/30 01:42:25;;;;;;;5.85;1.90;;;;;;;8.00;75.43;100238.78;5015587;28;20518;-87
2022/12/30 01:45:19;;;;;;;7.07;2.13;;;;;;;7.97;74.86;100252.91;5029089;28;20071;-88
2022/12/30 01:47:51;;;;;;;7.78;1.67;;;;;;;7.96;74.99;100268.72;5019063;28;20496;-87
2022/12/30 01:50:19;;;;;;;5.95;1.50;;;;;;;7.98;74.90;100277.34;5026942;28;20068;-86
2022/12/30 01:53:01;;;;;;;10.43;1.80;;;;;;;7.99;74.71;100261.53;5032114;28;20049;-89
2022/12/30 01:55:44;;;;;;;8.60;2.10;;;;;;;8.02;74.18;100260.53;5013289;28;20056;-90
2022/12/30 01:58:15;;;;;;;8.55;1.75;;;;;;;7.98;74.08;100267.72;5027335;28;20467;-87
2022/12/30 02:00:43;;;;;;;6.07;1.60;;;;;;;7.99;73.72;100281.66;5030205;28;20416;-87
2022/12/30 02:03:11;;;;;;;4.82;1.40;;;;;;;7.95;74.01;100285.38;5013980;28;20220;-87
2022/12/30 02:05:40;;;;;;;6.13;1.48;;;;;;;7.93;74.59;100295.94;5014880;28;20038;-88
2022/12/30 02:08:13;;;;;;;9.15;1.58;;;;;;;7.94;74.79;100296.78;5011064;28;20605;-88
2022/12/30 02:10:44;;;;;;;9.10;1.75;;;;;;;7.89;75.07;100293.56;5004418;28;20064;-86
2022/12/30 02:13:13;;;;;;;7.22;1.67;;;;;;;7.86;75.11;100298.03;5010788;28;20053;-86
2022/12/30 02:15:48;;;;;;;7.03;1.65;;;;;;;7.82;74.95;100304.34;5040556;28;20030;-87
2022/12/30 02:18:30;;;;;;;8.20;1.70;;;;;;;7.82;75.64;100314.00;5040004;28;20036;-87
2022/12/30 02:21:07;;;;;;;4.40;1.55;;;;;;;7.77;74.80;100316.00;5057988;28;20037;-86
2022/12/30 02:23:58;;;;;;;13.20;2.55;;;;;;;7.74;75.63;100318.78;5057062;28;20050;-88
2022/12/30 02:26:44;;;;;;;10.30;2.13;;;;;;;7.73;75.88;100324.97;5005012;28;20045;-87
2022/12/30 02:29:14;;;;;;;11.20;2.47;;;;;;;7.79;75.87;100319.38;5037942;28;20068;-86
2022/12/30 02:31:51;;;;;;;5.97;1.50;;;;;;;7.77;75.26;100322.09;5043973;28;20044;-88
2022/12/30 02:34:31;;;;;;;8.13;1.85;;;;;;;7.81;75.62;100317.56;5026538;28;20044;-85
2022/12/30 02:37:17;;;;;;;4.30;1.88;;;;;;;7.79;74.62;100324.63;5027251;28;20045;-87
2022/12/30 02:40:02;;;;;;;8.18;1.67;;;;;;;7.80;74.63;100327.19;5040007;28;20042;-87
2022/12/30 02:45:44;;;;;;;8.35;1.75;;;;;;;7.78;74.37;100318.53;5027244;28;20068;-86
2022/12/30 02:48:16;;;;;;;9.88;2.25;;;;;;;7.81;74.38;100322.78;5010807;28;20046;-86
2022/12/30 02:53:33;;;;;;;5.68;1.25;;;;;;;7.75;74.00;100318.72;5032008;28;20087;-86
2022/12/30 02:56:01;;;;;;;10.80;1.80;;;;;;;7.70;75.34;100312.00;5044681;28;20091;-87
2022/12/30 02:58:31;;;;;;;7.22;1.67;;;;;;;7.72;75.19;100323.28;5026351;28;20144;-86
2022/12/30 03:04:49;;;;;;;7.43;1.80;;;;;;;7.73;74.44;100330.19;5036641;28;20065;-84
2022/12/30 03:07:22;;;;;;;7.50;2.53;;;;;;;7.68;74.22;100322.56;5031612;28;20044;-88
2022/12/30 03:12:55;;;;;;;5.20;1.40;;;;;;;7.79;73.53;100327.25;5043555;28;20049;-87
2022/12/30 03:15:28;;;;;;;7.93;2.05;;;;;;;7.73;74.27;100331.03;5035998;28;20447;-87
2022/12/30 03:17:55;;;;;;;11.65;2.70;;;;;;;7.69;73.55;100333.91;5009539;28;20049;-85
2022/12/30 03:20:24;;;;;;;8.90;2.05;;;;;;;7.70;74.46;100336.47;5010138;28;20435;-87
2022/12/30 03:28:27;;;;;;;13.27;3.25;;;;;;;7.64;74.19;100346.41;5021762;28;20036;-87
2022/12/30 03:31:01;;;;;;;7.78;1.90;;;;;;;7.56;74.89;100355.47;5006448;28;20073;-87
2022/12/30 03:33:30;;;;;;;11.07;2.13;;;;;;;7.55;74.52;100360.81;5017796;28;20091;-85
2022/12/30 03:36:18;;;;;;;11.00;1.67;;;;;;;7.55;74.93;100348.56;5026252;28;20033;-86
2022/12/30 03:38:57;;;;;;;20.38;2.88;;;;;;;7.52;75.04;100350.47;5024546;28;20049;-86
2022/12/30 03:41:24;;;;;;;9.48;2.00;;;;;;;7.43;75.25;100354.44;5020128;28;20038;-86
2022/12/30 03:43:53;;;;;;;5.55;1.60;;;;;;;7.44;76.30;100355.28;5022078;28;20084;-86
2022/12/30 03:46:26;;;;;;;7.78;1.80;;;;;;;7.45;75.86;100357.81;5018703;28;20599;-88
2022/12/30 03:48:53;;;;;;;8.85;2.08;;;;;;;7.45;75.71;100360.44;5036810;28;20049;-87
2022/12/30 03:51:21;;;;;;;6.70;1.73;;;;;;;7.40;76.06;100361.59;5019465;28;20458;-87
2022/12/30 03:53:48;;;;;;;11.93;2.15;;;;;;;7.34;75.83;100375.84;5043081;28;20068;-86
2022/12/30 03:56:15;;;;;;;8.13;1.98;;;;;;;7.41;75.65;100376.38;5025246;28;20021;-86
2022/12/30 03:58:43;;;;;;;13.35;2.60;;;;;;;7.40;75.69;100374.69;5042967;28;20516;-85
2022/12/30 04:01:10;;;;;;;10.15;2.28;;;;;;;7.33;75.79;100376.75;5021141;28;20054;-87
2022/12/30 04:03:38;;;;;;;10.18;2.30;;;;;;;7.33;76.02;100382.81;5035195;28;20051;-86
2022/12/30 04:06:06;;;;;;;10.73;2.45;;;;;;;7.43;74.79;100396.34;5030601;28;20064;-87
2022/12/30 04:08:33;;;;;;;8.90;1.98;;;;;;;7.38;75.58;100393.06;5012376;28;20088;-88
2022/12/30 04:11:00;;;;;;;9.65;2.55;;;;;;;7.45;75.53;100396.25;5034248;28;20045;-86
2022/12/30 04:13:27;;;;;;;12.10;2.42;;;;;;;7.39;75.76;100394.78;5049386;28;20049;-85
2022/12/30 04:15:57;;;;;;;10.57;2.42;;;;;;;7.33;75.52;100393.28;5021566;28;20060;-86
2022/12/30 04:18:24;;;;;;;12.65;2.35;;;;;;;7.30;75.71;100385.63;5028059;28;20045;-87
2022/12/30 04:20:52;;;;;;;9.68;1.95;;;;;;;7.32;75.81;100386.38;5010982;28;20072;-86
2022/12/30 04:23:19;;;;;;;13.63;2.72;;;;;;;7.36;75.28;100392.31;5026356;28;20137;-89
2022/12/30 04:25:46;;;;;;;14.82;2.60;;;;;;;7.28;75.30;100386.59;5005567;28;20136;-87
2022/12/30 04:28:14;;;;;;;15.20;2.47;;;;;;;7.23;76.01;100392.06;5016321;28;20045;-88
2022/12/30 04:30:42;;;;;;;10.05;2.28;;;;;;;7.21;76.18;100395.69;5019769;28;20034;-87
2022/12/30 04:33:09;;;;;;;11.38;2.35;;;;;;;7.17;76.20;100412.47;5038583;28;20034;-87
2022/12/30 04:35:37;;;;;;;10.43;2.28;;;;;;;7.19;75.98;100415.84;5040890;28;20030;-85
2022/12/30 04:38:04;;;;;;;13.68;2.40;;;;;;;7.22;75.65;100413.94;5032176;28;20037;-88
2022/12/30 04:40:31;;;;;;;10.20;2.85;;;;;;;7.22;76.04;100406.06;5003201;28;20124;-88
2022/12/30 04:42:59;;;;;;;12.77;2.65;;;;;;;7.15;75.69;100401.19;5024873;28;20048;-87
2022/12/30 04:45:26;;;;;;;7.82;1.80;;;;;;;7.15;76.77;100403.81;5022611;28;20067;-88
2022/12/30 04:47:57;;;;;;;6.47;1.80;;;;;;;7.09;76.33;100403.19;5007681;28;20045;-88
2022/12/30 04:50:24;;;;;;;11.18;2.65;;;;;;;7.04;76.24;100409.59;5006454;28;20049;-88
2022/12/30 04:52:52;;;;;;;12.10;2.35;;;;;;;7.04;77.11;100407.81;5011537;28;20412;-87
2022/12/30 04:55:19;;;;;;;9.10;2.15;;;;;;;7.08;76.82;100427.69;5006618;28;20437;-88
2022/12/30 04:57:47;;;;;;;8.18;2.28;;;;;;;7.06;76.62;100429.50;5006287;28;20041;-89
2022/12/30 05:00:14;;;;;;;11.73;2.38;;;;;;;6.96;76.74;100432.66;5025701;28;20064;-88
2022/12/30 05:02:43;;;;;;;11.40;2.67;;;;;;;6.86;77.29;100434.84;5061197;28;20507;-88
2022/12/30 05:05:11;;;;;;;17.83;2.78;;;;;;;6.82;77.20;100435.91;5024421;28;20022;-88
2022/12/30 05:07:38;;;;;;;12.73;2.13;;;;;;;6.75;77.89;100444.94;5026460;28;20064;-89
2022/12/30 05:10:06;;;;;;;12.13;2.97;;;;;;;6.74;77.71;100440.63;5023242;28;20113;-90
2022/12/30 05:12:34;;;;;;;10.95;1.67;;;;;;;6.73;78.34;100444.19;5019070;28;20073;-88
2022/12/30 05:15:01;;;;;;;17.70;1.98;;;;;;;6.68;78.22;100444.41;5009595;28;20076;-87
2022/12/30 05:17:29;;;;;;;9.00;1.73;;;;;;;6.65;78.47;100452.38;5009261;28;20060;-87
2022/12/30 05:19:56;;;;;;;8.20;2.17;;;;;;;6.60;78.76;100452.59;5009010;28;20504;-88
2022/12/30 05:22:24;;;;;;;12.00;2.05;;;;;;;6.56;79.45;100456.25;5011566;28;20061;-87
2022/12/30 05:27:37;;;;;;;8.75;1.75;;;;;;;6.50;79.79;100464.38;5032751;28;20047;-89
2022/12/30 05:30:05;;;;;;;8.77;1.92;;;;;;;6.45;79.45;100463.75;5028714;28;20032;-88
2022/12/30 05:32:34;;;;;;;9.80;2.08;;;;;;;6.43;80.21;100475.16;5020091;28;20053;-87
2022/12/30 05:35:01;;;;;;;9.73;2.10;;;;;;;6.50;80.00;100479.22;5026128;28;20025;-89
2022/12/30 05:37:29;;;;;;;6.53;1.88;;;;;;;6.43;79.91;100481.25;5030443;28;20029;-87
2022/12/30 05:39:56;;;;;;;15.07;2.50;;;;;;;6.37;80.84;100478.91;5036729;28;20077;-88
2022/12/30 05:42:23;;;;;;;10.63;2.30;;;;;;;6.30;80.54;100480.97;5015352;28;20071;-87
2022/12/30 05:44:51;;;;;;;12.45;3.10;;;;;;;6.32;80.79;100478.28;5009384;28;20068;-88
2022/12/30 05:47:18;;;;;;;8.73;2.03;;;;;;;6.37;80.68;100486.75;5016576;28;20439;-87
2022/12/30 05:49:45;;;;;;;8.38;1.70;;;;;;;6.35;80.88;100488.59;5025728;28;20037;-88
2022/12/30 05:52:14;;;;;;;6.43;2.03;;;;;;;6.42;80.51;100490.00;5009751;28;20049;-87
2022/12/30 05:54:42;;;;;;;6.85;1.48;;;;;;;6.43;80.49;100496.94;5024359;28;20068;-88
2022/12/30 05:57:10;;;;;;;12.85;2.65;;;;;;;6.35;80.39;100506.91;5035883;28;20060;-87
2022/12/30 05:59:37;;;;;;;8.85;1.95;;;;;;;6.31;80.50;100513.19;5033999;28;20096;-88
2022/12/30 06:02:04;;;;;;;10.75;2.20;;;;;;;6.32;80.81;100507.88;5028760;28;20060;-86
2022/12/30 06:04:32;;;;;;;7.80;2.28;;;;;;;6.31;80.84;100521.03;5018395;28;20083;-87
2022/12/30 06:06:59;;;;;;;8.40;2.20;;;;;;;6.28;81.03;100526.38;5014550;28;20056;-87
2022/12/30 06:09:27;;;;;;;15.85;3.05;;;;;;;6.24;80.76;100533.50;5011920;28;20045;-89
2022/12/30 06:11:54;;;;;;;9.50;2.75;;;;;;;6.20;81.12;100537.16;5042679;28;20080;-86
2022/12/30 06:14:22;;;;;;;14.07;2.72;;;;;;;6.14;81.60;100542.63;5011690;28;20203;-87
2022/12/30 06:16:49;;;;;;;7.60;2.05;;;;;;;6.06;81.70;100550.78;5005904;28;20061;-86
2022/12/30 06:19:16;;;;;;;7.63;2.40;;;;;;;6.03;81.89;100550.94;5027362;28;20061;-87
2022/12/30 06:21:44;;;;;;;9.15;2.55;;;;;;;6.00;82.40;100550.22;5022139;28;20041;-88
2022/12/30 06:24:11;;;;;;;8.45;2.00;;;;;;;6.04;82.12;100554.41;5010347;28;20037;-89
2022/12/30 06:26:38;;;;;;;12.15;2.70;;;;;;;6.06;82.08;100560.41;5009516;28;20037;-89
2022/12/30 06:29:08;;;;;;;9.48;2.60;;;;;;;6.02;82.26;100558.81;5021907;28;20045;-88
2022/12/30 06:31:35;;;;;;;13.20;2.15;;;;;;;5.99;82.35;100559.81;5010699;28;20056;-88
2022/12/30 06:34:02;;;;;;;9.68;2.10;;;;;;;5.89;82.87;100571.50;5014171;28;20416;-88
2022/12/30 06:36:30;;;;;;;8.13;1.88;;;;;;;5.80;83.38;100571.88;5013265;28;20050;-87
2022/12/30 06:38:58;;;;;;;14.18;3.10;;;;;;;5.83;83.45;100564.75;5009009;28;20049;-88
2022/12/30 06:41:26;;;;;;;11.50;2.53;;;;;;;5.81;83.43;100565.75;5028603;28;20483;-89
2022/12/30 06:43:53;;;;;;;8.90;2.10;;;;;;;5.77;83.85;100565.03;5015833;28;20096;-88
2022/12/30 06:46:20;;;;;;;10.27;2.25;;;;;;;5.76;83.61;100581.63;5011657;28;20043;-88
2022/12/30 06:48:48;;;;;;;8.00;1.90;;;;;;;5.68;84.47;100577.59;5012517;28;20048;-88
2022/12/30 06:51:15;;;;;;;10.57;2.08;;;;;;;5.65;84.57;100582.94;5038081;28;20083;-88
2022/12/30 06:53:43;;;;;;;7.25;2.08;;;;;;;5.65;84.87;100588.16;5010593;28;20080;-88
2022/12/30 06:56:10;;;;;;;7.75;2.15;;;;;;;5.68;84.61;100586.28;5020932;28;20045;-88
2022/12/30 06:58:38;;;;;;;11.23;2.20;;;;;;;5.61;84.37;100597.03;5023813;28;20042;-88
2022/12/30 07:01:05;;;;;;;11.18;2.20;;;;;;;5.64;84.86;100602.97;5018940;28;20061;-88
2022/12/30 07:03:33;;;;;;;10.50;2.60;;;;;;;5.62;84.76;100601.31;5013128;28;20045;-87
2022/12/30 07:06:00;;;;;;;10.27;2.65;;;;;;;5.53;85.13;100603.38;5012559;28;20072;-89
2022/12/30 07:08:28;;;;;;;6.72;1.90;;;;;;;5.50;85.52;100603.50;5024521;28;20512;-87
2022/12/30 07:10:55;;;;;;;10.18;2.20;;;;;;;5.48;84.98;100600.09;5008819;28;20052;-87
2022/12/30 07:13:26;;;;;;;8.13;1.77;;;;;;;5.50;85.37;100610.50;5008377;28;20073;-88
2022/12/30 07:15:53;;;;;;;7.75;2.38;;;;;;;5.50;84.99;100619.19;5005111;28;20049;-88
2022/12/30 07:18:21;;;;;;;10.98;2.13;;;;;;;5.46;85.36;100614.97;5016266;28;20064;-88
2022/12/30 07:20:48;;;;;;;8.88;2.60;;;;;;;5.44;85.61;100629.00;5008657;28;20049;-88
2022/12/30 07:23:16;;;;;;;10.23;2.60;;;;;;;5.39;85.52;100623.09;5024783;28;20377;-88
2022/12/30 07:25:47;;;;;;;7.60;2.25;;;;;;;5.39;85.70;100630.94;5005894;28;20044;-89
2022/12/30 07:28:15;;;;;;;8.43;1.98;;;;;;;5.32;85.99;100645.97;5026054;28;20048;-89
2022/12/30 07:30:42;;;;;;;9.85;2.75;;;;;;;5.38;85.72;100645.75;5022806;28;20072;-86
2022/12/30 07:33:10;;;;;;;10.55;2.28;;;;;;;5.33;85.95;100651.13;5009184;28;20071;-87
2022/12/30 07:35:38;;;;;;;10.60;2.85;;;;;;;5.28;86.26;100647.00;5037328;28;20054;-87
2022/12/30 07:38:05;;;;;;;15.27;2.85;;;;;;;5.27;86.30;100643.53;5026552;28;20049;-88
2022/12/30 07:40:33;;;;;;;12.55;2.47;;;;;;;5.31;85.94;100645.13;5007542;28;20475;-86
2022/12/30 07:43:00;;;;;;;6.95;2.08;;;;;;;5.27;86.18;100642.69;5042588;28;20052;-89
2022/12/30 07:45:28;;;;;;;11.25;2.70;;;;;;;5.31;86.03;100644.25;5041611;28;20037;-88
2022/12/30 07:47:59;;;;;;;9.25;2.45;;;;;;;5.27;86.63;100658.34;5025357;28;20094;-86
2022/12/30 07:50:27;;;;;;;13.18;2.97;;;;;;;5.31;86.23;100659.91;5009248;28;20038;-86
2022/12/30 07:52:54;;;;;;;9.23;2.47;;;;;;;5.28;86.43;100666.13;5017835;28;20038;-85
2022/12/30 07:55:22;;;;;;;11.52;3.03;;;;;;;5.25;86.56;100678.41;5027474;28;20033;-86
2022/12/30 07:57:49;;;;;;;9.60;2.47;;;;;;;5.31;86.23;100678.19;5023498;28;20046;-85
2022/12/30 08:00:17;;;;;;;10.52;2.55;;;;;;;5.32;86.08;100672.09;5018820;28;20048;-86
2022/12/30 08:02:52;;;;;;;9.05;2.10;;;;;;;5.39;85.34;100668.31;5054675;28;20276;-85
2022/12/30 08:05:20;;;;;;;8.98;2.78;;;;;;;5.34;86.33;100678.09;5024003;28;20311;-85
2022/12/30 08:07:47;;;;;;;14.73;2.78;;;;;;;5.25;86.56;100673.19;5044406;28;20037;-86
2022/12/30 08:10:14;;;;;;;9.57;2.65;;;;;;;5.28;86.58;100673.94;5036868;28;20059;-84
2022/12/30 08:12:42;;;;;;;9.60;3.20;;;;;;;5.27;86.70;100674.00;5046455;28;20041;-86
2022/12/30 08:15:10;;;;;;;8.57;1.88;;;;;;;5.29;86.41;100693.06;5022453;28;20189;-88
2022/12/30 08:17:38;;;;;;;9.80;2.10;;;;;;;5.22;86.91;100697.66;5028426;28;20409;-87
2022/12/30 08:20:09;;;;;;;13.77;2.78;;;;;;;5.29;86.66;100680.88;5022981;28;20045;-86
2022/12/30 08:22:37;;;;;;;11.30;3.13;;;;;;;5.24;87.02;100689.78;5013859;28;20040;-87
2022/12/30 08:25:05;;;;;;;12.60;3.35;;;;;;;5.25;87.16;100696.69;5005896;28;20273;-87
2022/12/30 08:27:33;;;;;;;14.20;2.92;;;;;;;5.40;86.15;100688.28;5004362;28;20050;-86
2022/12/30 08:30:00;;;;;;;10.77;2.65;;;;;;;5.43;85.84;100684.72;5009737;28;20083;-84
2022/12/30 08:32:28;;;;;;;11.68;2.50;;;;;;;5.42;85.95;100689.09;5006467;28;20037;-86
2022/12/30 08:34:55;;;;;;;11.15;3.03;;;;;;;5.38;86.38;100694.50;5020968;28;20041;-86
2022/12/30 08:37:22;;;;;;;12.50;2.92;;;;;;;5.31;86.52;100697.34;5011514;28;20098;-85
2022/12/30 08:39:50;;;;;;;10.15;2.58;;;;;;;5.31;86.87;100689.50;5017307;28;20550;-86
2022/12/30 08:42:18;;;;;;;15.10;3.08;;;;;;;5.38;86.66;100697.94;5010250;28;20239;-86
2022/12/30 08:44:45;;;;;;;9.60;2.58;;;;;;;5.46;86.18;100698.53;5040022;28;20045;-88
2022/12/30 08:47:13;;;;;;;13.35;3.10;;;;;;;5.44;86.15;100700.34;5004197;28;20101;-88
2022/12/30 08:49:40;;;;;;;12.77;2.70;;;;;;;5.45;85.85;100709.00;5004265;28;20079;-88
2022/12/30 08:52:08;;;;;;;14.20;2.60;;;;;;;5.47;85.92;100700.22;5005158;28;20029;-88
2022/12/30 08:54:35;;;;;;;8.90;2.72;;;;;;;5.56;85.15;100705.13;5031106;28;20041;-88
2022/12/30 08:57:02;;;;;;;12.73;2.13;;;;;;;5.57;85.50;100709.41;5032268;28;20097;-88
2022/12/30 08:59:30;;;;;;;10.73;2.80;;;;;;;5.63;85.25;100716.19;5024526;28;20041;-87
2022/12/30 09:01:57;;;;;;;9.18;2.65;;;;;;;5.68;85.11;100716.03;5016440;28;20053;-88
2022/12/30 09:04:25;;;;;;;6.53;2.17;;;;;;;5.73;84.72;100711.47;5006192;28;20045;-88
2022/12/30 09:06:52;;;;;;;15.88;2.75;;;;;;;5.72;84.73;100707.13;5006231;28;20041;-87
2022/12/30 09:09:20;;;;;;;10.73;2.50;;;;;;;5.77;84.44;100711.31;5025415;28;20030;-87
2022/12/30 09:11:47;;;;;;;12.95;2.25;;;;;;;5.83;84.06;100705.00;5042435;28;20054;-86
2022/12/30 09:14:17;;;;;;;10.18;2.35;;;;;;;5.89;84.41;100719.56;5008657;28;20527;-87
2022/12/30 09:16:45;;;;;;;9.02;2.90;;;;;;;5.94;83.83;100712.44;5014543;28;20077;-87
2022/12/30 09:19:12;;;;;;;9.98;2.28;;;;;;;5.98;83.79;100722.72;5006024;28;20049;-86
2022/12/30 09:21:47;;;;;;;19.48;3.97;;;;;;;6.03;83.70;100722.53;5030894;28;20063;-88
2022/12/30 09:24:15;;;;;;;10.82;2.22;;;;;;;6.14;83.18;100722.13;5021193;28;20042;-88
2022/12/30 09:26:42;;;;;;;11.30;2.17;;;;;;;6.15;82.97;100726.44;5055767;28;20057;-86
2022/12/30 09:29:09;;;;;;;10.93;2.47;;;;;;;6.22;82.52;100733.16;5022298;28;20041;-86
2022/12/30 09:31:37;;;;;;;11.13;2.55;;;;;;;6.20;82.33;100725.34;5008269;28;20103;-86
2022/12/30 09:34:05;;;;;;;13.85;3.13;;;;;;;6.25;82.87;100726.03;5001920;28;20077;-86
2022/12/30 09:36:32;;;;;;;11.35;2.08;;;;;;;6.37;82.88;100718.63;5007137;28;20045;-86
2022/12/30 09:39:00;;;;;;;11.00;2.42;;;;;;;6.46;81.84;100711.25;5013955;28;20049;-87
2022/12/30 09:44:36;;;;;;;17.30;2.53;;;;;;;6.56;81.54;100712.56;5039965;28;20041;-86
2022/12/30 09:47:19;;;;;;;10.45;2.30;;;;;;;6.57;81.12;100703.84;5024359;28;20459;-87
2022/12/30 09:49:55;;;;;;;9.57;2.20;;;;;;;6.67;81.24;100709.53;5023751;28;20049;-87
2022/12/30 09:52:30;;;;;;;18.48;2.22;;;;;;;6.72;80.69;100715.41;5006391;28;20153;-86
2022/12/30 09:55:22;;;;;;;9.77;2.20;;;;;;;6.78;80.13;100714.31;5012323;28;20068;-86
2022/12/30 09:57:58;;;;;;;11.10;2.10;;;;;;;6.84;79.20;100714.91;5009299;28;20041;-85
2022/12/30 10:00:29;;;;;;;9.43;2.65;;;;;;;6.92;79.51;100711.94;5009028;28;20041;-86
2022/12/30 10:03:06;;;;;;;12.43;2.50;;;;;;;6.93;78.93;100705.78;5029253;28;20096;-88
2022/12/30 10:06:09;;;;;;;9.82;3.05;;;;;;;6.98;78.95;100706.47;5027022;28;20060;-85
2022/12/30 10:08:53;;;;;;;12.02;2.80;;;;;;;7.00;78.87;100694.16;5031583;28;20064;-87
2022/12/30 10:11:33;;;;;;;10.77;2.70;;;;;;;7.10;78.27;100703.31;5050908;28;20026;-87
2022/12/30 10:14:10;;;;;;;9.30;2.78;;;;;;;7.16;78.68;100701.34;5051125;28;20393;-86
2022/12/30 10:17:08;;;;;;;9.07;2.13;;;;;;;7.26;78.20;100695.66;5030970;28;20042;-85
2022/12/30 10:19:53;;;;;;;11.85;2.30;;;;;;;7.28;77.89;100695.56;5029090;28;20060;-86
2022/12/30 10:22:44;;;;;;;9.73;2.40;;;;;;;7.32;77.75;100695.38;5005478;28;20103;-88
2022/12/30 10:25:42;;;;;;;10.13;1.95;;;;;;;7.38;76.95;100691.63;5021027;28;20468;-89
2022/12/30 10:28:13;;;;;;;10.68;2.17;;;;;;;7.47;77.26;100685.97;5022793;28;20061;-86
2022/12/30 10:30:48;;;;;;;10.77;2.15;;;;;;;7.55;77.15;100683.00;5024193;28;20071;-87
2022/12/30 10:33:18;;;;;;;10.95;1.88;;;;;;;7.62;76.61;100673.97;5029914;28;20068;-88
2022/12/30 10:35:49;;;;;;;13.60;3.33;;;;;;;7.66;76.12;100679.91;5038838;28;20325;-86
2022/12/30 10:38:30;;;;;;;12.40;2.28;;;;;;;7.75;76.59;100676.88;5045828;28;20041;-88
2022/12/30 10:41:10;;;;;;;10.02;2.25;;;;;;;7.83;76.15;100674.72;5030471;28;20077;-88
2022/12/30 10:43:57;;;;;;;6.60;2.22;;;;;;;7.88;75.84;100672.75;5017915;28;20429;-87
2022/12/30 10:46:24;;;;;;;12.45;2.08;;;;;;;7.91;75.71;100669.97;5010805;28;20072;-88
2022/12/30 10:49:21;;;;;;;8.65;1.90;;;;;;;8.02;75.87;100669.50;5020719;28;20122;-88
2022/12/30 10:51:49;;;;;;;;;;;;;;;8.10;74.48;100670.81;5009185;28;20025;-89
2022/12/30 10:54:16;;;;;;;10.73;2.25;;;;;;;8.12;73.71;100655.84;5004620;28;19920;-88
2022/12/30 10:56:44;;;;;;;15.50;2.72;;;;;;;8.17;73.91;100668.75;5002230;28;20065;-87
2022/12/30 10:59:25;;;;;;;16.25;2.40;;;;;;;8.25;73.02;100650.03;5031547;28;20039;-87
2022/12/30 11:01:59;;;;;;;7.50;2.00;;;;;;;8.34;73.52;100649.56;5015355;28;20042;-88
2022/12/30 11:04:38;;;;;;;9.63;2.22;;;;;;;8.41;72.97;100653.59;5007935;28;20073;-87
2022/12/30 11:07:11;;;;;;;9.38;3.05;;;;;;;8.59;72.49;100655.31;5001750;28;20092;-89
2022/12/30 11:09:39;;;;;;;7.45;2.42;;;;;;;8.66;72.25;100652.41;5021442;28;20555;-86
2022/12/30 11:15:27;;;;;;;7.78;2.05;;;;;;;9.05;69.35;100650.34;5003209;28;20045;-87
2022/12/30 11:17:57;;;;;;;11.00;2.70;;;;;;;9.21;69.28;100639.03;5034943;28;20085;-86
2022/12/30 11:20:37;;;;;;;16.98;2.58;;;;;;;9.34;69.67;100650.59;5000006;28;20095;-85
2022/12/30 11:23:07;;;;;;;11.60;2.40;;;;;;;9.38;68.54;100637.19;5002492;28;20030;-86
2022/12/30 11:25:44;;;;;;;11.48;2.63;;;;;;;9.38;68.23;100645.09;5001147;28;20107;-85
2022/12/30 11:28:36;;;;;;;11.13;2.58;;;;;;;9.42;68.17;100635.28;5019750;28;20075;-85
2022/12/30 11:31:04;;;;;;;8.77;2.15;;;;;;;9.56;69.07;100626.63;5021478;28;20037;-85
2022/12/30 11:33:37;;;;;;;16.00;2.50;;;;;;;9.73;67.44;100628.34;5030869;28;20037;-86
2022/12/30 11:36:27;;;;;;;5.70;2.05;;;;;;;9.76;68.25;100636.03;5038700;28;20060;-85
2022/12/30 11:38:57;;;;;;;8.48;2.38;;;;;;;9.76;67.46;100641.28;5026142;28;20041;-86
2022/12/30 11:41:29;;;;;;;9.77;2.15;;;;;;;9.77;66.54;100627.22;5002619;28;20044;-85
2022/12/30 11:43:56;;;;;;;12.45;2.35;;;;;;;9.83;67.35;100626.88;5034917;28;20048;-86
2022/12/30 11:46:26;;;;;;;11.38;2.22;;;;;;;9.75;66.24;100634.34;5034165;28;20049;-85
2022/12/30 11:49:26;;;;;;;10.95;2.33;;;;;;;9.80;66.62;100634.94;5018683;28;20044;-86
2022/12/30 11:51:59;;;;;;;9.90;2.58;;;;;;;9.90;67.11;100636.13;5046097;28;20047;-86
2022/12/30 11:54:29;;;;;;;8.65;2.08;;;;;;;9.93;65.83;100629.84;5024071;28;20049;-87
2022/12/30 11:57:03;;;;;;;8.57;2.25;;;;;;;9.94;65.20;100627.13;5006489;28;20073;-87
2022/12/30 11:59:44;;;;;;;9.10;1.98;;;;;;;10.05;65.77;100622.13;5014723;28;20046;-87
2022/12/30 12:02:29;;;;;;;10.73;2.42;;;;;;;10.14;65.75;100610.22;5012684;28;20317;-85
2022/12/30 12:04:56;;;;;;;7.65;2.22;;;;;;;10.33;65.43;100616.16;5060065;28;20084;-87
2022/12/30 12:07:29;;;;;;;9.48;1.85;;;;;;;10.44;63.95;100617.31;5051265;28;20141;-86
2022/12/30 12:10:15;;;;;;;19.02;3.20;;;;;;;10.44;63.52;100599.72;5041378;28;20076;-86
2022/12/30 12:13:07;;;;;;;11.00;2.10;;;;;;;10.55;63.07;100592.06;5043976;28;20029;-86
2022/12/30 12:15:47;;;;;;;4.30;1.80;;;;;;;10.64;63.29;100599.41;5022995;28;20034;-85
2022/12/30 12:18:29;;;;;;;9.60;2.20;;;;;;;10.68;63.40;100604.50;5035219;28;20018;-86
2022/12/30 12:21:19;;;;;;;11.38;2.38;;;;;;;10.39;63.15;100589.47;5047681;28;20046;-87
2022/12/30 12:24:20;;;;;;;7.78;1.85;;;;;;;10.28;63.50;100591.06;5027999;28;20433;-87
2022/12/30 12:27:10;;;;;;;10.32;2.65;;;;;;;10.14;63.62;100591.81;5003038;28;20069;-88
2022/12/30 12:29:38;;;;;;;11.65;3.00;;;;;;;9.98;63.77;100577.84;5030550;28;20048;-87
2022/12/30 12:32:41;;;;;;;13.35;2.97;;;;;;;10.01;65.34;100582.94;5028068;28;20120;-89
2022/12/30 12:35:51;;;;;;;13.98;3.30;;;;;;;9.96;65.05;100577.09;5028923;28;20048;-89
2022/12/30 12:39:06;;;;;;;9.30;2.63;;;;;;;10.03;64.84;100584.53;5022168;28;20056;-85
2022/12/30 12:41:53;;;;;;;9.05;2.13;;;;;;;10.11;65.18;100579.69;4989338;28;20087;-88
2022/12/30 12:44:27;;;;;;;13.80;2.50;;;;;;;10.24;65.20;100574.59;5018180;28;20103;-88
2022/12/30 12:47:06;;;;;;;9.75;2.65;;;;;;;10.32;63.33;100585.53;5028627;28;20496;-87
2022/12/30 12:50:28;;;;;;;8.80;2.45;;;;;;;10.17;63.18;100590.78;5046093;28;20526;-86